createdAt,value
2018-09-10T00:02:07.104Z,100922.98
2018-09-10T00:12:12.069Z,100932.01
2018-09-10T00:22:15.633Z,100928.68
2018-09-10T00:32:18.614Z,100934.55
2018-09-10T00:42:22.201Z,100926.60
2018-09-10T00:52:25.159Z,100928.81
2018-09-10T01:02:28.185Z,100939.00
2018-09-10T01:12:30.651Z,100935.94
2018-09-10T01:22:33.171Z,100931.04
2018-09-10T01:32:36.256Z,100928.08
2018-09-10T01:42:38.726Z,100931.48
2018-09-10T01:52:41.168Z,100920.80
2018-09-10T02:02:44.261Z,100920.95
2018-09-10T02:12:48.072Z,100919.26
2018-09-10T02:22:50.651Z,100913.73
2018-09-10T02:32:54.401Z,100908.42
2018-09-10T02:42:58.044Z,100901.87
2018-09-10T02:53:00.421Z,100896.48
2018-09-10T03:03:02.973Z,100898.39
2018-09-10T03:13:06.237Z,100907.28
2018-09-10T03:23:08.651Z,100904.94
2018-09-10T03:33:12.410Z,100910.16
2018-09-10T03:43:14.896Z,100901.70
2018-09-10T03:53:18.831Z,100905.95
2018-09-10T04:03:22.704Z,100899.54
2018-09-10T04:13:25.162Z,100898.40
2018-09-10T04:23:27.802Z,100898.00
2018-09-10T04:33:30.166Z,100902.56
2018-09-10T04:43:32.538Z,100893.83
2018-09-10T04:53:35.057Z,100924.94
2018-09-10T05:03:37.574Z,100930.52
2018-09-10T05:13:40.109Z,100941.60
2018-09-10T05:23:42.745Z,100960.28
2018-09-10T05:33:45.103Z,100957.53
2018-09-10T05:43:49.831Z,100951.45
2018-09-10T05:53:52.241Z,100957.41
2018-09-10T06:03:54.742Z,100950.14
2018-09-10T06:13:57.153Z,100937.71
2018-09-10T06:24:00.513Z,100945.11
2018-09-10T06:34:02.852Z,100947.58
2018-09-10T06:44:05.402Z,100933.18
2018-09-10T06:54:07.739Z,100939.81
2018-09-10T07:04:10.135Z,100945.03
2018-09-10T07:14:12.634Z,100942.75
2018-09-10T07:24:15.022Z,100941.61
2018-09-10T07:34:17.349Z,100933.86
2018-09-10T07:44:19.806Z,100943.89
2018-09-10T07:54:22.069Z,100953.56
2018-09-10T08:04:24.409Z,100962.48
2018-09-10T08:14:26.749Z,100962.60
2018-09-10T08:24:29.120Z,100958.72
2018-09-10T08:34:31.476Z,100950.18
2018-09-10T08:44:33.821Z,100947.34
2018-09-10T08:54:36.596Z,100941.83
2018-09-10T09:04:38.888Z,100932.51
2018-09-10T09:14:41.289Z,100933.24
2018-09-10T09:24:43.676Z,100917.12
2018-09-10T09:34:51.704Z,100911.27
2018-09-10T09:44:59.559Z,100899.30
2018-09-10T09:55:02.231Z,100893.91
2018-09-10T10:05:05.455Z,100876.64
2018-09-10T10:15:07.921Z,100866.74
2018-09-10T10:25:10.399Z,100858.13
2018-09-10T10:35:12.746Z,100847.84
2018-09-10T10:45:15.133Z,100841.58
2018-09-10T10:55:17.606Z,100835.84
2018-09-10T11:05:20.159Z,100828.98
2018-09-10T11:15:22.663Z,100825.10
2018-09-10T11:25:25.221Z,100822.20
2018-09-10T11:35:27.547Z,100814.15
2018-09-10T11:45:30.094Z,100818.71
2018-09-10T11:55:33.481Z,100810.78
2018-09-10T12:05:35.978Z,100801.05
2018-09-10T12:15:38.416Z,100790.98
2018-09-10T12:25:40.846Z,100785.91
2018-09-10T12:35:44.021Z,100785.51
2018-09-10T12:45:46.482Z,100770.73
2018-09-10T12:55:48.970Z,100778.28
2018-09-10T13:05:51.437Z,100764.31
2018-09-10T13:15:53.838Z,100765.08
2018-09-10T13:25:56.290Z,100765.95
2018-09-10T13:35:58.804Z,100771.20
2018-09-10T13:46:01.192Z,100763.97
2018-09-10T13:56:03.780Z,100753.48
2018-09-10T14:06:06.368Z,100743.59
2018-09-10T14:16:08.751Z,100741.40
2018-09-10T14:26:11.425Z,100757.31
2018-09-10T14:36:13.866Z,100758.39
2018-09-10T14:46:16.341Z,100768.05
2018-09-10T14:56:18.832Z,100777.84
2018-09-10T15:06:21.336Z,100776.08
2018-09-10T15:16:23.704Z,100777.55
2018-09-10T15:26:26.078Z,100788.38
2018-09-10T15:36:28.572Z,100783.96
2018-09-10T15:46:31.021Z,100769.78
2018-09-10T15:56:33.426Z,100753.88
2018-09-10T16:06:35.967Z,100762.68
2018-09-10T16:16:38.401Z,100761.73
2018-09-10T16:26:40.790Z,100765.17
2018-09-10T16:36:43.255Z,100757.42
2018-09-10T16:46:45.631Z,100767.61
2018-09-10T16:56:48.659Z,100774.44
2018-09-10T17:06:51.042Z,100770.95
2018-09-10T17:16:53.645Z,100764.11
2018-09-10T17:26:56.203Z,100775.34
2018-09-10T17:36:59.049Z,100772.21
2018-09-10T17:47:01.688Z,100773.55
2018-09-10T17:57:04.160Z,100766.84
2018-09-10T18:07:06.557Z,100756.41
2018-09-10T18:17:09.049Z,100758.75
2018-09-10T18:27:11.564Z,100769.83
2018-09-10T18:37:14.329Z,100784.65
2018-09-10T18:47:16.999Z,100788.80
2018-09-10T18:57:19.681Z,100800.70
2018-09-10T19:07:22.256Z,100801.46
2018-09-10T19:17:25.013Z,100804.66
2018-09-10T19:27:30.558Z,100787.47
2018-09-10T19:37:33.440Z,100788.73
2018-09-10T19:47:35.786Z,100785.84
2018-09-10T19:57:38.484Z,100779.33
2018-09-10T20:07:40.856Z,100793.93
2018-09-10T20:17:43.407Z,100790.77
2018-09-10T20:27:45.935Z,100791.81
2018-09-10T20:37:48.517Z,100794.92
2018-09-10T20:47:51.016Z,100805.32
2018-09-10T20:57:53.601Z,100783.41
2018-09-10T21:07:55.980Z,100771.33
2018-09-10T21:17:58.662Z,100787.97
2018-09-10T21:28:01.083Z,100789.41
2018-09-10T21:38:03.512Z,100787.20
2018-09-10T21:48:05.881Z,100796.17
2018-09-10T21:58:08.433Z,100800.36
2018-09-10T22:08:10.973Z,100809.09
2018-09-10T22:18:13.857Z,100805.91
2018-09-10T22:28:16.473Z,100806.57
2018-09-10T22:38:18.957Z,100825.49
2018-09-10T22:48:21.363Z,100823.58
2018-09-10T22:58:23.793Z,100826.06
2018-09-10T23:08:26.298Z,100835.89
2018-09-10T23:18:29.528Z,100853.09
2018-09-10T23:28:31.984Z,100858.88
2018-09-10T23:38:34.624Z,100863.07
2018-09-10T23:48:37.085Z,100888.61
2018-09-10T23:58:39.479Z,100889.44
